createdAt,value
2019-02-05T19:54:17.903Z,38.58
2019-02-05T19:56:49.175Z,38.42
2019-02-05T19:59:20.318Z,38.82
2019-02-05T20:01:56.091Z,37.21
2019-02-05T20:06:03.960Z,37.03
2019-02-05T20:08:37.062Z,34.82
2019-02-05T20:11:10.760Z,33.79
2019-02-05T20:13:44.768Z,32.93
2019-02-05T20:16:48.119Z,32.86
2019-02-05T20:19:28.433Z,32.68
2019-02-05T20:21:59.782Z,32.77
2019-02-05T20:24:30.215Z,32.47
2019-02-05T20:27:00.637Z,33.02
2019-02-05T20:29:31.073Z,32.44
2019-02-05T20:32:01.407Z,32.74
2019-02-05T20:37:10.530Z,31.44
2019-02-05T20:39:43.401Z,36.43
2019-02-05T20:42:13.759Z,40.70
2019-02-05T20:44:44.179Z,44.93
2019-02-05T20:47:20.474Z,48.25
2019-02-05T20:49:50.842Z,51.32
2019-02-05T20:52:21.342Z,53.04
2019-02-05T20:54:54.783Z,54.82
2019-02-05T20:57:25.270Z,56.30
2019-02-05T20:59:56.003Z,57.10
2019-02-05T21:02:26.805Z,58.52
2019-02-05T21:04:57.765Z,58.79
2019-02-05T21:07:28.051Z,59.86
2019-02-05T21:09:58.410Z,60.30
2019-02-05T21:12:29.244Z,60.21
2019-02-05T21:14:59.804Z,60.58
2019-02-05T21:17:30.275Z,60.47
2019-02-05T21:20:00.598Z,61.05
2019-02-05T21:22:31.090Z,61.63
2019-02-05T21:25:01.445Z,62.72
2019-02-05T21:27:31.816Z,63.15
2019-02-05T21:30:02.111Z,62.92
2019-02-05T21:32:32.453Z,63.66
2019-02-05T21:35:02.817Z,64.01
2019-02-05T21:37:34.230Z,64.35
2019-02-05T21:40:07.854Z,64.30
2019-02-05T21:42:38.953Z,64.73
2019-02-05T21:45:17.634Z,64.69
2019-02-05T21:47:47.955Z,65.30
2019-02-05T21:50:22.268Z,65.47
2019-02-05T21:52:52.735Z,65.32
2019-02-05T21:55:24.536Z,65.00
2019-02-05T21:57:55.561Z,64.80
2019-02-05T22:00:27.395Z,64.70
2019-02-05T22:02:58.018Z,64.56
2019-02-05T22:05:29.853Z,65.47
2019-02-05T22:08:00.405Z,65.47
2019-02-05T22:10:30.808Z,65.76
2019-02-05T22:13:01.154Z,66.21
2019-02-05T22:15:31.828Z,66.06
2019-02-05T22:18:03.137Z,66.00
2019-02-05T22:20:33.436Z,65.93
2019-02-05T22:23:03.734Z,66.55
2019-02-05T22:25:34.059Z,66.59
2019-02-05T22:28:04.523Z,66.34
2019-02-05T22:30:38.702Z,65.30
2019-02-05T22:33:10.520Z,65.53
2019-02-05T22:35:40.790Z,66.12
2019-02-05T22:38:11.105Z,66.30
2019-02-05T22:40:42.999Z,66.59
2019-02-05T22:43:13.578Z,66.62
2019-02-05T22:45:43.874Z,66.56
2019-02-05T22:48:14.199Z,67.19
2019-02-05T22:50:44.500Z,66.84
2019-02-05T22:53:14.802Z,66.55
2019-02-05T22:55:45.075Z,66.54
2019-02-05T22:58:16.517Z,66.61
2019-02-05T23:00:54.249Z,65.85
2019-02-05T23:03:42.814Z,66.54
2019-02-05T23:06:22.573Z,66.72
2019-02-05T23:08:54.102Z,65.71
2019-02-05T23:11:47.840Z,65.82
2019-02-05T23:14:18.143Z,66.05
2019-02-05T23:16:48.406Z,65.52
2019-02-05T23:19:18.826Z,65.80
2019-02-05T23:21:49.111Z,66.24
2019-02-05T23:24:19.404Z,67.03
2019-02-05T23:26:49.691Z,67.03
2019-02-05T23:29:20.059Z,67.01
2019-02-05T23:31:50.336Z,66.62
2019-02-05T23:34:20.779Z,66.27
2019-02-05T23:36:51.092Z,65.46
2019-02-05T23:39:21.402Z,64.68
2019-02-05T23:41:51.708Z,64.46
2019-02-05T23:44:22.000Z,64.06
2019-02-05T23:46:52.284Z,64.04
2019-02-05T23:49:22.551Z,64.21
2019-02-05T23:51:52.846Z,64.09
2019-02-05T23:54:23.141Z,64.43
2019-02-05T23:56:53.520Z,64.39
2019-02-05T23:59:23.798Z,65.21
